• Join FlightAware (Why Join?)
  • Login
  • US Flag 
01:52PM EDT


 

Airport Tracker/Info


-or-


 

Live Flight TrackerFlight Track Log ✈ N400PU ✈ 04-Apr-2013 ✈ KLNK - KLAF

Flight Track Log - Related Links

Times and Time Zones

All times are in EDT time to prevent confusion due to time zone crossing. See the N400PU flight status page for this flight to view local times or setup timezone preferences in your user account.

Time Position Orientation Groundspeed Altitude Reporting Facility
EDT Latitude Longitude Course Direction KTS MPH feet Rate Location/Type
02:54PM 40.8581 -96.7658 333° Northwest 161 185 2,000  Level Minneapolis Center
02:55PM 40.8689 -96.7731 333° Northwest 180 207 2,500 2,520 Climbing Minneapolis Center
02:56PM 40.9242 -96.7464 20° North 232 267 5,000 3,120 Climbing Minneapolis Center
02:57PM 40.9150 -96.6550 98° East 250 288 8,500 3,000 Climbing Minneapolis Center
02:58PM 40.9058 -96.5592 97° East 259 298 11,200 2,700 Climbing Minneapolis Center
02:59PM 40.8942 -96.4542 98° East 280 322 14,100 2,760 Climbing Minneapolis Center
03:00PM 40.8728 -96.3494 105° East 293 337 17,000 2,700 Climbing Minneapolis Center
03:01PM 40.8275 -96.2272 116° Southeast 307 353 19,700 2,400 Climbing Minneapolis Center
03:02PM 40.7867 -96.1214 117° Southeast 319 367 22,000 2,100 Climbing Minneapolis Center
03:03PM 40.7744 -96.0050 98° East 322 371 24,100 1,920 Climbing Minneapolis Center
03:04PM 40.7650 -95.8856 96° East 328 377 26,000 1,800 Climbing Minneapolis Center
03:05PM 40.7547 -95.7600 96° East 341 392 27,800 1,740 Climbing Minneapolis Center
03:06PM 40.7444 -95.6294 96° East 355 409 29,600 1,560 Climbing Minneapolis Center
03:07PM 40.7303 -95.4642 96° East 375 432 31,100 1,500 Climbing Minneapolis Center
03:08PM 40.7206 -95.3236 95° East 384 442 32,700 1,500 Climbing Minneapolis Center
03:09PM 40.7081 -95.1836 97° East 386 444 34,300 1,380 Climbing Minneapolis Center
03:10PM 40.6961 -95.0453 96° East 383 441 35,600 1,020 Climbing Minneapolis Center
03:11PM 40.6831 -94.9028 97° East 389 448 36,500 960 Climbing Minneapolis Center
03:12PM 40.6697 -94.7575 97° East 397 457 37,600 1,080 Climbing Minneapolis Center
03:13PM 40.6575 -94.6136 96° East 398 458 38,800 660 Climbing Minneapolis Center
03:14PM 40.6428 -94.4489 97° East 400 460 39,000 60 Climbing Minneapolis Center
03:15PM 40.6281 -94.2933 97° East 422 486 39,000  Level Minneapolis Center
03:16PM 40.6131 -94.1328 97° East 439 505 39,000  Level Minneapolis Center
03:17PM 40.5972 -93.9689 97° East 451 519 39,000  Level Minneapolis Center
03:18PM 40.5967 -93.7717 90° East 450 518 39,000  Level Minneapolis Center
03:19PM 40.5967 -93.6075 90° East 451 519 39,000  Level Minneapolis Center
03:20PM 40.5981 -93.4442 89° East 450 518 39,000  Level Minneapolis Center
03:21PM 40.5947 -93.3150 92° East 445 512 39,000  Level Kansas City Center
03:22PM 40.5953 -93.1514 90° East 449 517 39,000  Level Kansas City Center
03:23PM 40.5947 -92.9947 90° East 447 514 39,000  Level Kansas City Center
03:24PM 40.5944 -92.8108 90° East 444 511 39,000  Level Kansas City Center
03:25PM 40.5936 -92.6464 90° East 448 516 39,000  Level Kansas City Center
03:26PM 40.5925 -92.4822 90° East 450 518 39,000  Level Kansas City Center
03:27PM 40.5908 -92.2992 91° East 448 516 39,000  Level Kansas City Center
03:28PM 40.5886 -92.1344 91° East 450 518 39,000  Level Kansas City Center
03:29PM 40.5872 -91.9700 91° East 451 519 39,000  Level Kansas City Center
03:30PM 40.5844 -91.8058 91° East 452 520 39,000  Level Kansas City Center
03:31PM 40.5825 -91.6406 91° East 453 521 39,000  Level Kansas City Center
03:32PM 40.5792 -91.4758 91° East 453 521 39,000  Level Kansas City Center
03:34PM 40.5767 -91.2947 91° East 455 524 39,000  Level Chicago Center
03:35PM 40.5717 -91.0939 92° East 458 527 39,000  Level Chicago Center
03:36PM 40.5689 -90.9272 91° East 458 527 39,000  Level Chicago Center
03:37PM 40.5669 -90.7592 91° East 460 529 39,000  Level Chicago Center
03:38PM 40.5617 -90.5928 92° East 459 528 39,000  Level Chicago Center
03:39PM 40.5572 -90.4253 92° East 459 528 39,000  Level Chicago Center
03:40PM 40.5514 -90.2467 92° East 462 532 39,000  Level Chicago Center
03:41PM 40.5469 -90.0783 92° East 463 533 39,000  Level Chicago Center
03:42PM 40.5411 -89.8764 92° East 465 535 39,000  Level Chicago Center
03:43PM 40.5356 -89.7089 92° East 462 532 39,000  Level Chicago Center
03:44PM 40.5286 -89.5417 93° East 462 532 39,000  Level Chicago Center
03:45PM 40.5228 -89.3594 92° East 459 528 39,000  Level Chicago Center
03:46PM 40.5164 -89.1919 93° East 461 531 39,000 -900 Level Chicago Center
03:47PM 40.5100 -89.0247 93° East 460 529 37,200 -2,280 Descending Chicago Center
03:48PM 40.5036 -88.8578 93° East 460 529 34,300 -3,060 Descending Chicago Center
03:49PM 40.4969 -88.6869 93° East 439 505 31,000 -3,360 Descending Chicago Center
03:50PM 40.4900 -88.5300 93° East 435 501 27,400 -2,880 Descending Chicago Center
03:51PM 40.4836 -88.3633 93° East 456 525 25,100 -1,980 Descending Chicago Center
03:52PM 40.4736 -88.1594 94° East 469 540 23,300 -2,160 Descending Chicago Center
03:53PM 40.4667 -87.9975 93° East 451 519 20,700 -2,580 Descending Chicago Center
03:54PM 40.4600 -87.8456 93° East 427 491 18,000 -2,520 Descending Chicago Center
03:55PM 40.4528 -87.6931 94° East 422 486 15,500 -2,520 Descending Chicago Center
03:56PM 40.4461 -87.5544 94° East 391 450 12,800 -2,220 Descending Chicago Center
03:57PM 40.4383 -87.4039 94° East 356 410 11,000 -1,320 Descending Chicago Center
03:58PM 40.4336 -87.2992 93° East 307 353 10,100 -1,500 Descending Chicago Center
03:59PM 40.4283 -87.2269 95° East 266 306 8,300 -1,980 Descending Chicago Center
03:59PM 40.4278 -87.2067 92° East 270 311 8,100 -2,280 Descending Chicago Center
04:00PM 40.4233 -87.1472 96° East 210 242 6,000 -2,340 Descending Chicago Center
04:00PM 40.4261 -87.1308 77° East 236 272 5,700 -1,500 Descending Chicago Center
04:01PM 40.4181 -87.0608 99° East 213 245 4,000 -2,100 Descending Chicago Center
04:02PM 40.4056 -87.1186 254° West 165 190 2,100 -1,140 Descending Chicago Center
04:03PM 40.4222 -87.0733 64° Northeast 168 193 2,100 -240 Level Chicago Center
04:04PM 40.4200 -87.0186 93° East 144 166 1,700 -420 Descending Chicago Center
04:06PM 40.4000 -86.9333 90° East  Level FlightAware Approximate
04:13PM 40.4123 -86.9369 90° East  Level Estimated